Latest Coastal Weather Observations for Smithton

IDT60701

Issued at 1:12 am EST Monday 21 August 2017 (issued every 10 minutes, with the page automatically refreshed every 10 minutes)

About coastal observations | Map of coastal stations | Coastal observations for TAS | Marine services | Other Formats
Station Details ID: 091292 Name: SMITHTON AERODROME Lat: -40.83 Lon: 145.08 Height: 7.5 m
Data from the previous 72 hours. | See also: Recent months at Smithton
Date/Time
EST
Temp
°C
Wind Pressure Rain since
9am
mm
Weather Cloud Vis
km
Sea
Height
m
Swell
Dir  Spd
kts
Gust
kts
hPa Trend Height
m
Period
s
Dir
21/01:00am 4.9 SSW 4 5 1017.8 - 0.6 - - - - - - -
21/12:30am 5.2 SSW 1 3 1018.0 - 0.6 - - - - - - -
21/12:00am 5.1 SSW 3 4 1018.2 - 0.6 - - - - - - -
 
Date/Time
EST
Temp
°C
Wind Pressure Rain since
9am
mm
Weather Cloud Vis
km
Sea
Height
m
Swell
Dir  Spd
kts
Gust
kts
hPa Trend Height
m
Period
s
Dir
20/11:30pm 5.8 SSW 4 5 1018.3 - 0.6 - - - - - - -
20/11:00pm 5.4 W 2 6 1018.4 - 0.6 - - - - - - -
20/10:30pm 6.0 CALM 0 0 1018.6 - 0.6 - - - - - - -
20/10:00pm 6.0 W 4 5 1019.0 - 0.6 - - - - - - -
20/09:30pm 6.0 CALM 0 0 1019.2 - 0.6 - - - - - - -
20/09:00pm 5.6 CALM 0 0 1019.3 - 0.6 - - - - - - -
20/08:30pm 5.4 W 2 4 1019.3 - 0.6 - - - - - - -
20/08:00pm 5.1 CALM 0 2 1019.4 - 0.6 - - - - - - -
20/07:30pm 7.1 W 4 4 1019.5 - 0.6 - - - - - - -
20/07:00pm 7.8 W 5 5 1019.6 - 0.6 - - - - - - -
20/06:30pm 8.1 WNW 5 6 1019.6 - 0.6 - - - - - - -
20/06:00pm 8.1 WNW 4 6 1019.4 - 0.6 - - - - - - -
20/05:30pm 9.0 WSW 5 6 1019.1 - 0.6 - - - - - - -
20/05:00pm 9.8 SW 4 5 1018.9 - 0.6 - - - - - - -
20/04:30pm 10.5 SW 6 8 1019.3 - 0.6 - - - - - - -
20/04:00pm 10.6 WSW 8 11 1019.5 - 0.6 - - - - - - -
20/03:30pm 11.6 WSW 12 15 1020.0 - 0.6 - - - - - - -
20/03:00pm 12.6 WNW 9 11 1020.0 - 0.6 - - - - - - -
20/02:30pm 11.7 W 8 11 1020.3 - 0.6 - - - - - - -
20/02:00pm 11.0 NW 4 6 1020.6 - 0.6 - - - - - - -
20/01:30pm 11.2 N 5 7 1020.9 - 0.6 - - - - - - -
20/01:00pm 10.9 WNW 5 6 1021.5 - 0.6 - - - - - - -
20/12:30pm 10.4 SSW 2 4 1022.1 - 0.6 - - - - - - -
20/12:00pm 10.6 S 2 5 1022.5 - 0.6 - - - - - - -
20/11:30am 9.5 S 1 3 1023.2 - 0.6 - - - - - - -
20/11:00am 8.8 S 1 4 1023.8 - 0.6 - - - - - - -
20/10:30am 7.5 S 4 5 1024.2 - 0.4 - - - - - - -
20/10:00am 7.9 W 1 6 1024.5 - 0.0 - - - - - - -
20/09:30am 6.4 CALM 0 0 1024.6 - 0.0 - - - - - - -
20/09:00am 3.5 W 3 4 1024.8 - 0.2 - - - - - - -
20/08:30am 2.6 W 3 5 1024.9 - 0.2 - - - - - - -
20/08:00am 1.7 W 4 5 1024.9 - 0.0 - - - - - - -
20/07:30am 0.9 W 4 5 1024.8 - 0.0 - - - - - - -
20/07:00am 0.6 SSW 1 3 1024.5 - 0.0 - - - - - - -
20/06:30am 0.1 SW 6 8 1024.6 - 0.0 - - - - - - -
20/06:00am -0.6 SSW 1 3 1024.3 - 0.0 - - - - - - -
20/05:30am -0.2 SSW 3 4 1024.4 - 0.0 - - - - - - -
20/05:00am -0.2 SSW 4 6 1024.4 - 0.0 - - - - - - -
20/04:30am -0.2 SSW 4 5 1024.6 - 0.0 - - - - - - -
20/04:00am 0.2 CALM 0 4 1024.8 - 0.0 - - - - - - -
20/03:30am 0.7 SSW 6 8 1024.9 - 0.0 - - - - - - -
20/03:00am -0.4 SSW 3 4 1024.9 - 0.0 - - - - - - -
20/02:30am -0.5 SSW 3 4 1025.0 - 0.0 - - - - - - -
20/02:00am 0.3 SSW 4 6 1025.3 - 0.0 - - - - - - -
20/01:30am 0.1 S 5 6 1025.4 - 0.0 - - - - - - -
20/01:00am -0.6 S 5 6 1025.7 - 0.0 - - - - - - -
20/12:30am -0.7 S 4 5 1025.9 - 0.0 - - - - - - -
20/12:00am -0.2 S 4 6 1026.0 - 0.0 - - - - - - -
 
Date/Time
EST
Temp
°C
Wind Pressure Rain since
9am
mm
Weather Cloud Vis
km
Sea
Height
m
Swell
Dir  Spd
kts
Gust
kts
hPa Trend Height
m
Period
s
Dir
19/11:30pm -0.5 S 4 5 1026.1 - 0.0 - - - - - - -
19/11:00pm 0.1 S 3 5 1026.1 - 0.0 - - - - - - -
19/10:30pm 0.4 S 4 5 1026.0 - 0.0 - - - - - - -
19/10:00pm 1.0 S 4 6 1026.0 - 0.0 - - - - - - -
19/09:30pm 1.3 S 2 4 1026.0 - 0.0 - - - - - - -
19/09:00pm 2.0 SSW 3 4 1026.0 - 0.0 - - - - - - -
19/08:30pm 2.6 CALM 0 0 1025.8 - 0.0 - - - - - - -
19/08:00pm 3.2 CALM 0 0 1025.8 - 0.0 - - - - - - -
19/07:30pm 4.1 CALM 0 0 1025.9 - 0.0 - - - - - - -
19/07:00pm 4.8 S 2 4 1026.0 - 0.0 - - - - - - -
19/06:30pm 4.9 S 4 5 1026.1 - 0.0 - - - - - - -
19/06:00pm 5.7 SSW 6 7 1026.2 - 0.0 - - - - - - -
19/05:30pm 7.1 SW 8 10 1025.9 - 0.0 - - - - - - -
19/05:00pm 8.2 SW 10 15 1025.5 - 0.0 - - - - - - -
19/04:30pm 8.5 SSW 12 16 1025.3 - 0.0 - - - - - - -
19/04:00pm 10.4 SW 12 17 1025.0 - 0.0 - - - - - - -
19/03:30pm 9.6 SSW 15 20 1025.0 - 0.0 - - - - - - -
19/03:00pm 10.4 WSW 14 18 1024.9 - 0.0 - - - - - - -
19/02:30pm 10.0 WSW 15 20 1025.1 - 0.0 - - - - - - -
19/02:00pm 10.0 SW 12 16 1024.9 - 0.0 - - - - - - -
19/01:30pm 10.3 SSW 13 19 1024.7 - 0.0 - - - - - - -
19/01:00pm 11.5 SW 14 19 1024.8 - 0.0 - - - - - - -
19/12:30pm 8.9 SW 14 20 1025.1 - 0.0 - - - - - - -
19/12:00pm 9.8 SW 13 17 1025.2 - 0.0 - - - - - - -
19/11:30am 10.1 SW 13 17 1025.5 - 0.0 - - - - - - -
19/11:00am 9.3 SW 13 18 1025.7 - 0.0 - - - - - - -
19/10:30am 9.1 SW 6 9 1025.7 - 0.0 - - - - - - -
19/10:00am 8.6 S 4 6 1025.3 - 0.0 - - - - - - -
19/09:30am 7.1 S 4 7 1025.6 - 0.0 - - - - - - -
19/09:00am 5.8 S 1 4 1025.3 - 0.4 - - - - - - -
19/08:30am 4.2 S 2 4 1025.0 - 0.2 - - - - - - -
19/08:00am 2.8 CALM 0 0 1024.5 - 0.2 - - - - - - -
19/07:30am 1.2 CALM 0 0 1024.2 - 0.2 - - - - - - -
19/07:00am 0.4 CALM 0 0 1023.6 - 0.2 - - - - - - -
19/06:30am 0.3 CALM 0 0 1023.2 - 0.2 - - - - - - -
19/06:00am 0.0 CALM 0 0 1022.6 - 0.2 - - - - - - -
19/05:30am 0.6 S 4 4 1022.2 - 0.2 - - - - - - -
19/05:00am 0.6 S 4 5 1021.8 - 0.2 - - - - - - -
19/04:30am 2.4 CALM 0 0 1021.5 - 0.2 - - - - - - -
19/04:00am 2.4 S 3 3 1021.2 - 0.2 - - - - - - -
19/03:30am 1.6 S 6 7 1021.1 - 0.2 - - - - - - -
19/03:00am 2.2 S 5 6 1020.6 - 0.2 - - - - - - -
19/02:30am 2.5 S 5 7 1020.5 - 0.2 - - - - - - -
19/02:00am 2.7 S 6 7 1020.4 - 0.2 - - - - - - -
19/01:30am 3.2 SSW 6 8 1020.3 - 0.2 - - - - - - -
19/01:00am 2.6 SW 5 6 1019.8 - 0.2 - - - - - - -
19/12:30am 2.7 SW 6 7 1019.4 - 0.2 - - - - - - -
19/12:00am 4.6 S 8 10 1019.0 - 0.2 - - - - - - -
 
Date/Time
EST
Temp
°C
Wind Pressure Rain since
9am
mm
Weather Cloud Vis
km
Sea
Height
m
Swell
Dir  Spd
kts
Gust
kts
hPa Trend Height
m
Period
s
Dir
18/11:30pm 3.8 S 5 6 1019.1 - 0.2 - - - - - - -
18/11:00pm 3.9 SW 4 6 1018.6 - 0.2 - - - - - - -
18/10:30pm 4.9 SW 8 10 1018.4 - 0.2 - - - - - - -
18/10:00pm 4.7 SSW 9 13 1018.2 - 0.2 - - - - - - -
18/09:30pm 4.0 SW 7 10 1017.6 - 0.2 - - - - - - -
18/09:00pm 4.1 SSW 7 9 1017.2 - 0.2 - - - - - - -
18/08:30pm 4.8 SSW 9 12 1016.5 - 0.2 - - - - - - -
18/08:00pm 4.8 SSW 10 12 1016.1 - 0.2 - - - - - - -
18/07:30pm 5.2 SW 9 14 1015.5 - 0.2 - - - - - - -
18/07:00pm 6.0 SW 11 15 1014.7 - 0.2 - - - - - - -
18/06:30pm 5.6 SW 10 13 1013.9 - 0.2 - - - - - - -
18/06:00pm 5.4 SSW 7 9 1013.1 - 0.2 - - - - - - -
18/05:30pm 6.9 SSW 11 15 1012.4 - 0.2 - - - - - - -
18/05:00pm 7.9 SSW 20 27 1011.6 - 0.2 - - - - - - -
18/04:30pm 8.9 SSW 15 20 1010.8 - 0.2 - - - - - - -
18/04:00pm 8.7 SSW 13 19 1010.2 - 0.2 - - - - - - -
18/03:30pm 8.5 SSW 16 21 1009.9 - 0.2 - - - - - - -
18/03:00pm 9.5 SSW 20 25 1009.0 - 0.2 - - - - - - -
18/02:50pm 9.1 SSW 20 26 1008.8 - 0.2 - - - - - - -
18/02:30pm 10.2 WSW 17 21 1008.0 - 0.2 - - - - - - -
18/02:00pm 10.2 SW 19 27 1007.6 - 0.2 - - - - - - -
18/01:30pm 9.5 SW 19 27 1007.1 - 0.2 - - - - - - -
18/01:05pm 8.2 SSW 18 28 1007.0 - 0.2 - - - - - - -
18/01:00pm 8.4 SSW 19 28 1007.0 - 0.2 - - - - - - -
18/12:57pm 8.8 SSW 17 28 1006.9 - 0.0 - - - - - - -
18/12:30pm 10.1 SSW 20 27 1006.6 - 0.0 - - - - - - -
18/12:11pm 9.9 SW 19 29 1006.4 - 0.0 - - - - - - -
18/12:00pm 9.7 SSW 17 24 1006.4 - 0.0 - - - - - - -
18/11:30am 9.9 SSW 15 20 1005.9 - 0.0 - - - - - - -
18/11:00am 8.8 SSW 16 21 1005.6 - 0.0 - - - - - - -
18/10:38am 9.7 SSW 15 31 1005.0 - 0.0 - - - - - - -
18/10:30am 10.1 SSW 17 26 1005.1 - 0.0 - - - - - - -
18/10:00am 9.1 SSW 14 18 1004.2 - 0.0 - - - - - - -
18/09:30am 8.6 SSW 10 13 1003.8 - 0.0 - - - - - - -
18/09:00am 7.6 SSW 6 7 1003.3 - 8.2 - - - - - - -
18/08:30am 5.9 S 5 7 1002.9 - 8.2 - - - - - - -
18/08:00am 5.4 W 5 6 1002.4 - 8.0 - - - - - - -
18/07:30am 4.2 W 1 5 1001.6 - 8.0 - - - - - - -
18/07:00am 4.2 W 6 7 1000.9 - 8.0 - - - - - - -
18/06:30am 5.2 W 8 9 1000.4 - 8.0 - - - - - - -
18/06:00am 6.3 WSW 10 15 1000.2 - 8.0 - - - - - - -
18/05:30am 5.7 W 7 8 999.7 - 7.8 - - - - - - -
18/05:00am 6.2 SW 8 10 999.5 - 7.8 - - - - - - -
18/04:30am 5.7 W 4 5 999.1 - 7.6 - - - - - - -
18/04:00am 5.7 W 1 5 998.8 - 7.6 - - - - - - -
18/03:30am 5.9 WNW 4 7 998.7 - 7.4 - - - - - - -
18/03:00am 6.0 NW 5 8 998.5 - 7.4 - - - - - - -
18/02:30am 6.0 WSW 7 9 998.7 - 6.6 - - - - - - -
18/02:00am 6.0 S 5 6 998.7 - 5.0 - - - - - - -
18/01:30am 5.9 S 6 8 998.3 - 4.4 - - - - - - -

Other Formats:

Comma delimited format used in spreadsheet applications
http://www.bom.gov.au/fwo/IDT60701/IDT60701.94953.axf

JavaScript Object Notation format (JSON) in row-major order
http://www.bom.gov.au/fwo/IDT60701/IDT60701.94953.json